createdAt,value
2019-01-04T00:01:11.628Z,2.20
2019-01-04T00:03:43.061Z,2.20
2019-01-04T00:06:14.964Z,2.20
2019-01-04T00:08:48.760Z,2.20
2019-01-04T00:11:20.323Z,2.20
2019-01-04T00:13:53.116Z,2.30
2019-01-04T00:16:25.729Z,2.30
2019-01-04T00:18:57.695Z,2.40
2019-01-04T00:21:29.734Z,2.40
2019-01-04T00:24:02.419Z,2.40
2019-01-04T00:26:35.742Z,2.40
2019-01-04T00:29:07.377Z,2.40
2019-01-04T00:31:40.566Z,2.40
2019-01-04T00:34:12.518Z,2.40
2019-01-04T00:36:44.533Z,2.40
2019-01-04T00:39:17.779Z,2.30
2019-01-04T00:41:50.238Z,2.30
2019-01-04T00:44:21.842Z,2.20
2019-01-04T00:46:54.420Z,2.20
2019-01-04T00:49:26.028Z,2.20
2019-01-04T00:51:58.110Z,2.30
2019-01-04T00:54:29.668Z,2.30
2019-01-04T00:57:27.602Z,2.30
2019-01-04T01:00:24.950Z,2.40
2019-01-04T01:03:26.619Z,2.40
2019-01-04T01:07:03.281Z,2.50
2019-01-04T01:10:10.594Z,2.50
2019-01-04T01:13:19.076Z,2.60
2019-01-04T01:16:33.790Z,2.60
2019-01-04T01:19:48.221Z,2.70
2019-01-04T01:23:07.341Z,2.80
2019-01-04T01:26:15.483Z,2.80
2019-01-04T01:29:31.183Z,2.80
2019-01-04T01:32:38.407Z,2.90
2019-01-04T01:35:50.777Z,2.90
2019-01-04T01:39:09.385Z,2.90
2019-01-04T01:42:07.531Z,2.90
2019-01-04T01:45:17.983Z,2.90
2019-01-04T01:48:13.320Z,2.90
2019-01-04T01:51:23.700Z,2.90
2019-01-04T01:53:58.022Z,2.90
2019-01-04T01:56:29.571Z,2.90
2019-01-04T01:59:01.351Z,2.90
2019-01-04T02:01:33.193Z,2.80
2019-01-04T02:04:05.114Z,2.80
2019-01-04T02:06:36.618Z,2.80
2019-01-04T02:09:10.699Z,2.80
2019-01-04T02:11:42.395Z,2.80
2019-01-04T02:14:15.269Z,2.90
2019-01-04T02:16:47.035Z,2.90
2019-01-04T02:19:18.829Z,2.90
2019-01-04T02:21:50.681Z,3.00
2019-01-04T02:24:22.469Z,3.00
2019-01-04T02:26:54.535Z,3.00
2019-01-04T02:29:26.545Z,3.00
2019-01-04T02:31:59.338Z,3.00
2019-01-04T02:34:30.854Z,3.00
2019-01-04T02:37:02.941Z,3.00
2019-01-04T02:39:34.334Z,3.00
2019-01-04T02:42:06.168Z,3.00
2019-01-04T02:44:38.098Z,3.00
2019-01-04T02:47:09.605Z,3.00
2019-01-04T02:49:41.244Z,3.00
2019-01-04T02:52:12.620Z,3.00
2019-01-04T02:54:45.910Z,3.00
2019-01-04T02:57:18.035Z,3.00
2019-01-04T02:59:49.906Z,2.90
2019-01-04T03:02:21.604Z,2.90
2019-01-04T03:04:53.233Z,2.80
2019-01-04T03:07:24.777Z,2.80
2019-01-04T03:09:56.518Z,2.80
2019-01-04T03:12:27.920Z,2.80
2019-01-04T03:14:59.537Z,2.80
2019-01-04T03:17:31.080Z,2.80
2019-01-04T03:20:02.732Z,2.70
2019-01-04T03:22:34.404Z,2.80
2019-01-04T03:25:06.314Z,2.80
2019-01-04T03:27:37.992Z,2.80
2019-01-04T03:30:10.660Z,2.80
2019-01-04T03:32:42.233Z,2.80
2019-01-04T03:35:13.907Z,2.80
2019-01-04T03:37:46.165Z,2.90
2019-01-04T03:40:17.840Z,2.90
2019-01-04T03:42:51.106Z,2.90
2019-01-04T03:45:22.918Z,3.00
2019-01-04T03:47:54.450Z,3.00
2019-01-04T03:50:26.608Z,3.10
2019-01-04T03:52:58.239Z,3.20
2019-01-04T03:55:29.867Z,3.20
2019-01-04T03:58:01.658Z,3.20
2019-01-04T04:00:33.237Z,3.20
2019-01-04T04:03:08.060Z,3.10
2019-01-04T04:05:39.589Z,3.20
2019-01-04T04:08:11.289Z,3.30
2019-01-04T04:10:42.787Z,3.30
2019-01-04T04:13:14.376Z,3.40
2019-01-04T04:15:46.716Z,3.50
2019-01-04T04:18:20.595Z,3.60
2019-01-04T04:20:52.259Z,3.70
2019-01-04T04:23:24.501Z,3.70
2019-01-04T04:25:57.226Z,3.80
2019-01-04T04:28:28.941Z,3.80
2019-01-04T04:31:00.369Z,3.80
2019-01-04T04:33:32.199Z,3.80
2019-01-04T04:36:04.398Z,3.90
2019-01-04T04:38:38.928Z,3.90
2019-01-04T04:41:10.921Z,3.90
2019-01-04T04:43:42.362Z,4.00
2019-01-04T04:46:13.825Z,4.10
2019-01-04T04:48:45.353Z,4.10
2019-01-04T04:51:17.933Z,4.20
2019-01-04T04:53:49.563Z,4.20
2019-01-04T04:56:21.721Z,4.30
2019-01-04T04:58:53.598Z,4.30
2019-01-04T05:01:25.261Z,4.30
2019-01-04T05:03:56.933Z,4.20
2019-01-04T05:06:28.531Z,4.20
2019-01-04T05:09:00.039Z,4.20
2019-01-04T05:11:31.547Z,4.20
2019-01-04T05:14:03.159Z,4.20
2019-01-04T05:16:35.050Z,4.20
2019-01-04T05:19:06.765Z,4.20
2019-01-04T05:21:38.240Z,4.20
2019-01-04T05:24:11.657Z,4.20
2019-01-04T05:26:44.246Z,4.20
2019-01-04T05:29:16.092Z,4.20
2019-01-04T05:31:48.115Z,4.20
2019-01-04T05:34:20.189Z,4.20
2019-01-04T05:36:51.829Z,4.20
2019-01-04T05:39:23.476Z,4.20
2019-01-04T05:41:54.987Z,4.20
2019-01-04T05:44:26.312Z,4.10
2019-01-04T05:46:57.886Z,4.20
2019-01-04T05:49:31.048Z,4.20
2019-01-04T05:52:02.606Z,4.10
2019-01-04T05:54:34.080Z,4.10
2019-01-04T05:57:05.573Z,4.10
2019-01-04T05:59:37.534Z,4.10
2019-01-04T06:02:09.087Z,4.10
2019-01-04T06:04:40.700Z,4.10
2019-01-04T06:07:12.360Z,4.10
2019-01-04T06:09:44.111Z,4.10
2019-01-04T06:12:15.653Z,4.10
2019-01-04T06:14:48.916Z,4.10
2019-01-04T06:17:21.662Z,4.10
2019-01-04T06:19:53.238Z,4.10
2019-01-04T06:22:25.100Z,4.10
2019-01-04T06:24:56.641Z,4.10
2019-01-04T06:27:28.891Z,4.10
2019-01-04T06:30:00.381Z,4.10
2019-01-04T06:32:33.121Z,4.10
2019-01-04T06:35:06.440Z,4.10
2019-01-04T06:37:39.691Z,4.20
2019-01-04T06:40:11.785Z,4.20
2019-01-04T06:42:43.584Z,4.20
2019-01-04T06:45:15.732Z,4.20
2019-01-04T06:47:48.043Z,4.20
2019-01-04T06:50:19.718Z,4.20
2019-01-04T06:52:51.656Z,4.20
2019-01-04T06:55:50.055Z,4.30
2019-01-04T06:58:23.149Z,4.40
2019-01-04T07:00:54.741Z,4.50
2019-01-04T07:03:26.272Z,4.40
2019-01-04T07:05:58.249Z,4.50
2019-01-04T07:08:31.767Z,4.50
2019-01-04T07:11:03.936Z,4.50
2019-01-04T07:13:35.483Z,4.50
2019-01-04T07:16:07.141Z,4.50
2019-01-04T07:18:38.611Z,4.40
2019-01-04T07:21:10.123Z,4.40
2019-01-04T07:23:41.676Z,4.30
2019-01-04T07:26:13.304Z,4.40
2019-01-04T07:28:46.121Z,4.50
2019-01-04T07:31:18.122Z,4.40
2019-01-04T07:33:51.589Z,4.40
2019-01-04T07:36:24.529Z,4.40
2019-01-04T07:39:03.757Z,4.40
2019-01-04T07:41:35.215Z,4.30
2019-01-04T07:44:08.227Z,4.20
2019-01-04T07:46:40.077Z,4.20
2019-01-04T07:49:22.597Z,4.00
2019-01-04T07:51:54.326Z,4.00
2019-01-04T07:54:26.167Z,3.90
2019-01-04T07:56:58.143Z,3.90
2019-01-04T07:59:29.556Z,3.90
2019-01-04T08:02:00.975Z,3.80
2019-01-04T08:04:32.806Z,3.70
2019-01-04T08:07:04.328Z,3.60
2019-01-04T08:09:37.138Z,3.50
2019-01-04T08:12:08.975Z,3.50
2019-01-04T08:14:41.574Z,3.50
2019-01-04T08:17:13.828Z,3.50
2019-01-04T08:19:45.543Z,3.40
2019-01-04T08:22:17.937Z,3.40
2019-01-04T08:24:50.666Z,3.40
2019-01-04T08:27:22.300Z,3.40
2019-01-04T08:29:56.722Z,3.40
2019-01-04T08:32:29.460Z,3.30
2019-01-04T08:35:01.536Z,3.30
2019-01-04T08:37:33.365Z,3.20
2019-01-04T08:40:05.612Z,3.20
2019-01-04T08:42:37.485Z,3.20
2019-01-04T08:45:10.998Z,3.20
2019-01-04T08:47:43.930Z,3.20
2019-01-04T08:50:17.447Z,3.20
2019-01-04T08:52:51.336Z,3.30
2019-01-04T08:55:28.025Z,3.30
2019-01-04T08:57:59.513Z,3.40
2019-01-04T09:00:32.204Z,3.40
2019-01-04T09:03:03.918Z,3.50
2019-01-04T09:05:35.333Z,3.50
2019-01-04T09:08:07.038Z,3.60
2019-01-04T09:10:39.569Z,3.60
2019-01-04T09:13:12.796Z,3.70
2019-01-04T09:15:44.435Z,3.80
2019-01-04T09:18:16.406Z,3.80
2019-01-04T09:20:48.061Z,3.90
2019-01-04T09:23:21.135Z,3.90
2019-01-04T09:25:52.946Z,4.00
2019-01-04T09:28:24.668Z,4.00
2019-01-04T09:30:57.711Z,4.10
2019-01-04T09:33:29.516Z,4.10
2019-01-04T09:36:01.115Z,4.10
2019-01-04T09:38:32.543Z,4.20
2019-01-04T09:41:35.490Z,4.30
2019-01-04T09:44:07.389Z,4.30
2019-01-04T09:46:40.150Z,4.30
2019-01-04T09:49:12.395Z,4.30
2019-01-04T09:51:44.232Z,4.30
2019-01-04T09:54:15.991Z,4.30
2019-01-04T09:56:47.605Z,4.30
2019-01-04T09:59:19.462Z,4.30
2019-01-04T10:01:52.482Z,4.30
2019-01-04T10:04:24.320Z,4.30
2019-01-04T10:06:55.871Z,4.30
2019-01-04T10:09:29.115Z,4.30
2019-01-04T10:12:00.830Z,4.30
2019-01-04T10:14:33.920Z,4.30
2019-01-04T10:17:05.409Z,4.30
2019-01-04T10:19:38.449Z,4.30
2019-01-04T10:22:11.629Z,4.30
2019-01-04T10:24:43.289Z,4.30
2019-01-04T10:27:15.083Z,4.30
2019-01-04T10:29:48.281Z,4.30
2019-01-04T10:32:19.927Z,4.30
2019-01-04T10:34:52.673Z,4.30
2019-01-04T10:37:24.433Z,4.30
2019-01-04T10:39:55.967Z,4.30
2019-01-04T10:42:30.349Z,4.30
2019-01-04T10:45:02.335Z,4.30
2019-01-04T10:47:34.210Z,4.30
2019-01-04T10:50:06.237Z,4.20
2019-01-04T10:52:37.808Z,4.30
2019-01-04T10:55:11.200Z,4.30
2019-01-04T10:57:42.832Z,4.30
2019-01-04T11:00:14.428Z,4.30
2019-01-04T11:02:47.269Z,4.30
2019-01-04T11:05:19.269Z,4.30
2019-01-04T11:07:51.069Z,4.30
2019-01-04T11:10:22.940Z,4.30
2019-01-04T11:12:55.179Z,4.30
2019-01-04T11:15:26.812Z,4.30
2019-01-04T11:17:58.418Z,4.30
2019-01-04T11:20:44.248Z,4.30
2019-01-04T11:23:51.628Z,4.30
2019-01-04T11:26:36.027Z,4.30
2019-01-04T11:29:22.532Z,4.40
2019-01-04T11:32:37.020Z,4.40
2019-01-04T11:35:57.330Z,4.30
2019-01-04T11:38:57.852Z,4.30
2019-01-04T11:42:19.438Z,4.30
2019-01-04T11:45:18.734Z,4.30
2019-01-04T11:48:34.422Z,4.30
2019-01-04T11:51:35.875Z,4.30
2019-01-04T11:54:13.376Z,4.20
2019-01-04T11:56:46.844Z,4.30
2019-01-04T11:59:18.475Z,4.30
2019-01-04T12:01:51.155Z,4.30
2019-01-04T12:04:22.944Z,4.20
2019-01-04T12:06:54.513Z,4.30
2019-01-04T12:09:26.710Z,4.20
2019-01-04T12:11:58.213Z,4.30
2019-01-04T12:14:30.507Z,4.30
2019-01-04T12:17:02.271Z,4.30
2019-01-04T12:19:33.929Z,4.30
2019-01-04T12:22:05.705Z,4.30
2019-01-04T12:24:37.597Z,4.30
2019-01-04T12:27:09.372Z,4.20
2019-01-04T12:29:40.964Z,4.30
2019-01-04T12:32:12.578Z,4.20
2019-01-04T12:34:44.099Z,4.20
2019-01-04T12:37:15.693Z,4.10
2019-01-04T12:39:47.324Z,4.10
2019-01-04T12:42:19.427Z,4.20
2019-01-04T12:44:52.040Z,4.20
2019-01-04T12:47:24.901Z,4.10
2019-01-04T12:49:56.684Z,4.10
2019-01-04T12:52:28.629Z,4.10
2019-01-04T12:55:00.540Z,4.00
2019-01-04T12:57:33.844Z,4.10
2019-01-04T13:00:09.940Z,4.00
2019-01-04T13:02:42.940Z,4.00
2019-01-04T13:05:15.608Z,4.00
2019-01-04T13:07:47.577Z,4.00
2019-01-04T13:10:19.273Z,4.00
2019-01-04T13:12:50.987Z,3.90
2019-01-04T13:15:23.243Z,3.90
2019-01-04T13:17:56.465Z,3.90
2019-01-04T13:20:28.348Z,3.90
2019-01-04T13:23:06.284Z,3.90
2019-01-04T13:25:38.147Z,4.00
2019-01-04T13:28:19.455Z,4.00
2019-01-04T13:30:51.457Z,4.00
2019-01-04T13:33:22.815Z,4.00
2019-01-04T13:35:54.978Z,4.00
2019-01-04T13:38:27.038Z,4.00
2019-01-04T13:40:58.772Z,4.00
2019-01-04T13:43:30.805Z,4.00
2019-01-04T13:46:04.264Z,3.90
2019-01-04T13:48:35.915Z,4.00
2019-01-04T13:51:07.701Z,3.90
2019-01-04T13:53:39.375Z,3.90
2019-01-04T13:56:11.405Z,3.90
2019-01-04T13:58:43.572Z,3.90
2019-01-04T14:01:15.352Z,3.90
2019-01-04T14:03:47.577Z,3.90
2019-01-04T14:06:19.966Z,4.00
2019-01-04T14:08:52.842Z,3.90
2019-01-04T14:11:24.965Z,4.00
2019-01-04T14:13:56.768Z,4.00
2019-01-04T14:16:28.380Z,4.00
2019-01-04T14:19:00.457Z,4.00
2019-01-04T14:21:33.262Z,4.00
2019-01-04T14:24:05.178Z,4.00
2019-01-04T14:26:36.847Z,4.00
2019-01-04T14:29:08.950Z,4.00
2019-01-04T14:31:42.203Z,4.00
2019-01-04T14:34:14.009Z,4.00
2019-01-04T14:36:45.920Z,4.00
2019-01-04T14:39:17.422Z,4.00
2019-01-04T14:41:49.541Z,4.00
2019-01-04T14:44:21.452Z,4.00
2019-01-04T14:46:54.847Z,4.00
2019-01-04T14:49:28.362Z,4.10
2019-01-04T14:52:00.242Z,4.00
2019-01-04T14:54:32.474Z,4.10
2019-01-04T14:57:04.025Z,4.00
2019-01-04T14:59:37.427Z,4.00
2019-01-04T15:02:09.125Z,4.00
2019-01-04T15:04:41.298Z,4.10
2019-01-04T15:07:13.193Z,4.10
2019-01-04T15:09:44.878Z,4.10
2019-01-04T15:12:16.838Z,4.10
2019-01-04T15:14:48.547Z,4.10
2019-01-04T15:17:20.375Z,4.10
2019-01-04T15:19:51.997Z,4.10
2019-01-04T15:22:23.753Z,4.20
2019-01-04T15:24:55.837Z,4.20
2019-01-04T15:27:28.966Z,4.20
2019-01-04T15:30:00.513Z,4.20
2019-01-04T15:32:32.524Z,4.30
2019-01-04T15:35:04.204Z,4.30
2019-01-04T15:37:36.649Z,4.30
2019-01-04T15:40:09.632Z,4.30
2019-01-04T15:42:42.667Z,4.20
2019-01-04T15:45:14.143Z,4.20
2019-01-04T15:47:45.736Z,4.20
2019-01-04T15:50:17.967Z,4.20
2019-01-04T15:52:50.303Z,4.10
2019-01-04T15:55:22.326Z,4.10
2019-01-04T15:57:55.771Z,4.10
2019-01-04T16:00:27.511Z,4.10
2019-01-04T16:03:00.298Z,4.10
2019-01-04T16:05:32.173Z,4.20
2019-01-04T16:08:04.357Z,4.10
2019-01-04T16:10:35.759Z,4.20
2019-01-04T16:13:08.274Z,4.20
2019-01-04T16:15:44.408Z,4.20
2019-01-04T16:18:15.892Z,4.20
2019-01-04T16:20:47.759Z,4.30
2019-01-04T16:23:20.183Z,4.30
2019-01-04T16:25:53.632Z,4.20
2019-01-04T16:28:25.051Z,4.30
2019-01-04T16:30:56.834Z,4.30
2019-01-04T16:33:29.432Z,4.30
2019-01-04T16:36:01.164Z,4.30
2019-01-04T16:38:32.734Z,4.40
2019-01-04T16:41:07.180Z,4.40
2019-01-04T16:43:39.376Z,4.30
2019-01-04T16:46:13.137Z,4.40
2019-01-04T16:48:45.255Z,4.40
2019-01-04T16:51:16.947Z,4.40
2019-01-04T16:53:48.653Z,4.40
2019-01-04T16:56:20.395Z,4.50
2019-01-04T16:58:52.146Z,4.40
2019-01-04T17:01:24.055Z,4.50
2019-01-04T17:03:55.982Z,4.50
2019-01-04T17:06:27.798Z,4.50
2019-01-04T17:09:02.762Z,4.50
2019-01-04T17:11:34.437Z,4.50
2019-01-04T17:14:06.274Z,4.50
2019-01-04T17:16:39.470Z,4.50
2019-01-04T17:19:11.883Z,4.60
2019-01-04T17:21:44.945Z,4.50
2019-01-04T17:24:16.897Z,4.60
2019-01-04T17:26:49.108Z,4.50
2019-01-04T17:29:20.633Z,4.50
2019-01-04T17:31:52.141Z,4.50
2019-01-04T17:34:23.831Z,4.60
2019-01-04T17:36:56.433Z,4.60
2019-01-04T17:39:28.023Z,4.50
2019-01-04T17:41:59.857Z,4.50
2019-01-04T17:44:33.140Z,4.50
2019-01-04T17:47:04.726Z,4.60
2019-01-04T17:49:42.962Z,4.60
2019-01-04T17:52:18.709Z,4.50
2019-01-04T17:54:50.832Z,4.50
2019-01-04T17:57:22.996Z,4.50
2019-01-04T17:59:54.714Z,4.60
2019-01-04T18:02:26.212Z,4.60
2019-01-04T18:04:58.206Z,4.60
2019-01-04T18:07:29.974Z,4.50
2019-01-04T18:10:01.539Z,4.60
2019-01-04T18:12:33.336Z,4.60
2019-01-04T18:15:05.619Z,4.60
2019-01-04T18:17:39.883Z,4.60
2019-01-04T18:20:13.986Z,4.60
2019-01-04T18:22:45.293Z,4.70
2019-01-04T18:25:17.130Z,4.70
2019-01-04T18:27:49.548Z,4.70
2019-01-04T18:30:22.112Z,4.60
2019-01-04T18:32:56.273Z,4.60
2019-01-04T18:35:28.163Z,4.60
2019-01-04T18:38:01.541Z,4.60
2019-01-04T18:40:33.277Z,4.60
2019-01-04T18:43:04.932Z,4.70
2019-01-04T18:45:36.781Z,4.70
2019-01-04T18:48:09.641Z,4.70
2019-01-04T18:50:42.217Z,4.70
2019-01-04T18:53:14.704Z,4.70
2019-01-04T18:55:47.876Z,4.70
2019-01-04T18:58:19.491Z,4.70
2019-01-04T19:00:51.087Z,4.80
2019-01-04T19:03:22.984Z,4.80
2019-01-04T19:05:55.513Z,4.80
2019-01-04T19:08:27.372Z,4.80
2019-01-04T19:10:59.841Z,4.90
2019-01-04T19:13:33.561Z,4.90
2019-01-04T19:16:05.394Z,4.90
2019-01-04T19:18:36.932Z,4.80
2019-01-04T19:21:11.478Z,4.80
2019-01-04T19:23:42.948Z,4.90
2019-01-04T19:26:17.596Z,4.90
2019-01-04T19:28:49.248Z,4.90
2019-01-04T19:31:20.748Z,4.90
2019-01-04T19:33:52.748Z,4.90
2019-01-04T19:36:24.427Z,4.90
2019-01-04T19:38:57.297Z,5.00
2019-01-04T19:41:29.248Z,5.00
2019-01-04T19:44:01.562Z,5.00
2019-01-04T19:46:33.780Z,5.00
2019-01-04T19:49:07.732Z,5.00
2019-01-04T19:51:40.144Z,5.00
2019-01-04T19:54:12.390Z,5.00
2019-01-04T19:56:45.928Z,4.90
2019-01-04T19:59:18.185Z,4.90
2019-01-04T20:01:50.806Z,5.00
2019-01-04T20:04:22.452Z,5.00
2019-01-04T20:08:25.167Z,5.10
2019-01-04T20:12:01.956Z,5.20
2019-01-04T20:15:28.409Z,5.30
2019-01-04T20:18:24.999Z,5.40
2019-01-04T20:21:14.328Z,5.50
2019-01-04T20:24:05.529Z,5.60
2019-01-04T20:27:05.353Z,5.60
2019-01-04T20:30:14.199Z,5.60
2019-01-04T20:33:05.962Z,5.70
2019-01-04T20:36:07.171Z,5.70
2019-01-04T20:38:59.088Z,5.70
2019-01-04T20:41:59.135Z,5.70
2019-01-04T20:44:58.395Z,5.70
2019-01-04T20:48:00.086Z,5.70
2019-01-04T20:50:50.619Z,5.70
2019-01-04T20:53:50.307Z,5.80
2019-01-04T20:56:40.275Z,5.80
2019-01-04T20:59:31.715Z,5.80
2019-01-04T21:02:34.582Z,5.80
2019-01-04T21:05:25.237Z,5.80
2019-01-04T21:08:15.705Z,5.80
2019-01-04T21:11:05.851Z,5.80
2019-01-04T21:13:57.035Z,5.80
2019-01-04T21:16:47.817Z,5.80
2019-01-04T21:19:37.117Z,5.80
2019-01-04T21:22:29.812Z,5.80
2019-01-04T21:25:22.619Z,5.80
2019-01-04T21:28:13.128Z,5.80
2019-01-04T21:31:05.286Z,5.80
2019-01-04T21:33:55.834Z,5.80
2019-01-04T21:36:59.135Z,5.80
2019-01-04T21:40:00.201Z,5.80
2019-01-04T21:42:49.588Z,5.80
2019-01-04T21:45:39.026Z,5.80
2019-01-04T21:48:30.503Z,5.80
2019-01-04T21:51:19.897Z,5.80
2019-01-04T21:54:10.369Z,5.80
2019-01-04T21:56:59.887Z,5.80
2019-01-04T22:00:06.330Z,5.80
2019-01-04T22:03:02.847Z,5.90
2019-01-04T22:05:58.042Z,5.80
2019-01-04T22:08:49.899Z,5.90
2019-01-04T22:11:43.226Z,5.90
2019-01-04T22:14:32.327Z,5.90
2019-01-04T22:17:36.124Z,5.90
2019-01-04T22:20:23.304Z,5.90
2019-01-04T22:23:17.148Z,5.90
2019-01-04T22:26:26.004Z,5.90
2019-01-04T22:29:17.536Z,5.90
2019-01-04T22:32:00.056Z,5.90
2019-01-04T22:34:53.567Z,5.90
2019-01-04T22:37:51.590Z,5.90
2019-01-04T22:40:48.917Z,5.90
2019-01-04T22:43:38.288Z,5.90
2019-01-04T22:46:31.754Z,5.90
2019-01-04T22:49:25.196Z,5.90
2019-01-04T22:52:18.991Z,5.90
2019-01-04T22:55:15.754Z,5.90
2019-01-04T22:58:06.408Z,5.90
2019-01-04T23:00:56.668Z,5.90
2019-01-04T23:04:05.343Z,5.90
2019-01-04T23:06:55.055Z,5.90
2019-01-04T23:09:44.409Z,5.90
2019-01-04T23:12:29.526Z,5.90
2019-01-04T23:15:20.055Z,5.90
2019-01-04T23:18:09.068Z,5.90
2019-01-04T23:21:11.362Z,5.90
2019-01-04T23:24:14.633Z,5.90
2019-01-04T23:27:11.229Z,5.90
2019-01-04T23:29:57.241Z,5.90
2019-01-04T23:32:48.746Z,5.90
2019-01-04T23:35:38.429Z,5.90
2019-01-04T23:38:31.629Z,5.90
2019-01-04T23:41:16.234Z,5.90
2019-01-04T23:44:05.552Z,6.00
2019-01-04T23:46:59.032Z,6.00
2019-01-04T23:49:49.803Z,6.00
2019-01-04T23:52:43.371Z,6.00
2019-01-04T23:55:40.656Z,5.90
2019-01-04T23:58:27.759Z,5.90
